Saint Louis, Missouri
Traffic Map
Current Weather Conditions
Saint Louis, Missouri
Clear
Clear
68°
Feels Like: 68°
Wind Chill: 68° Ceiling: Unl
Heat Index: 68° Visibility: 10mi
Dew Point: 56° Wind: 6mph
Humidity: 65% Direction: 110° (ESE)
Pressure: 29.84in Gusts: 0mph
Raw Report DataKCPS 190353Z AUTO 11005KT 10SM CLR 20/13 A2984 RMK AO2 SLP100 T02000133
Traffic Incident Summary
Active as of:
Severity:
Category:
InformationThere was an issue retrieving the traffic information for this location. Please try a different location or try again shortly.
Advertisements
Track Severe Weather on mobile